sensor_id;sensor_type;location;lat;lon;timestamp;P1;durP1;ratioP1;P2;durP2;ratioP2
34924;SDS011;21130;51.728;8.748;2023-05-23T00:01:57;39.22;;;33.25;;
34924;SDS011;21130;51.728;8.748;2023-05-23T00:04:24;37.45;;;33.28;;
34924;SDS011;21130;51.728;8.748;2023-05-23T00:06:51;37.20;;;32.63;;
34924;SDS011;21130;51.728;8.748;2023-05-23T00:09:18;43.05;;;34.42;;
34924;SDS011;21130;51.728;8.748;2023-05-23T00:11:46;39.88;;;32.47;;
34924;SDS011;21130;51.728;8.748;2023-05-23T00:14:13;35.75;;;31.80;;
34924;SDS011;21130;51.728;8.748;2023-05-23T00:16:40;36.80;;;32.83;;
34924;SDS011;21130;51.728;8.748;2023-05-23T00:19:08;36.40;;;32.47;;
34924;SDS011;21130;51.728;8.748;2023-05-23T00:21:35;36.80;;;32.67;;
34924;SDS011;21130;51.728;8.748;2023-05-23T00:24:02;36.80;;;32.47;;
34924;SDS011;21130;51.728;8.748;2023-05-23T00:26:31;39.35;;;33.65;;
34924;SDS011;21130;51.728;8.748;2023-05-23T00:28:58;39.63;;;33.83;;
34924;SDS011;21130;51.728;8.748;2023-05-23T00:31:25;43.45;;;33.70;;
34924;SDS011;21130;51.728;8.748;2023-05-23T00:33:51;38.28;;;34.13;;
34924;SDS011;21130;51.728;8.748;2023-05-23T00:36:18;36.67;;;32.67;;
34924;SDS011;21130;51.728;8.748;2023-05-23T00:38:46;42.08;;;34.40;;
34924;SDS011;21130;51.728;8.748;2023-05-23T00:41:13;40.20;;;34.17;;
34924;SDS011;21130;51.728;8.748;2023-05-23T00:43:41;39.42;;;34.17;;
34924;SDS011;21130;51.728;8.748;2023-05-23T00:46:07;36.95;;;32.67;;
34924;SDS011;21130;51.728;8.748;2023-05-23T00:48:35;39.30;;;35.00;;
34924;SDS011;21130;51.728;8.748;2023-05-23T00:51:03;37.95;;;33.60;;
34924;SDS011;21130;51.728;8.748;2023-05-23T00:53:30;36.80;;;33.08;;
34924;SDS011;21130;51.728;8.748;2023-05-23T00:55:56;40.42;;;35.58;;
34924;SDS011;21130;51.728;8.748;2023-05-23T00:58:23;38.47;;;34.30;;
34924;SDS011;21130;51.728;8.748;2023-05-23T01:00:51;39.05;;;34.88;;
34924;SDS011;21130;51.728;8.748;2023-05-23T01:03:19;40.85;;;36.60;;
34924;SDS011;21130;51.728;8.748;2023-05-23T01:05:45;42.78;;;36.75;;
34924;SDS011;21130;51.728;8.748;2023-05-23T01:08:12;40.40;;;35.33;;
34924;SDS011;21130;51.728;8.748;2023-05-23T01:10:39;45.35;;;36.90;;
34924;SDS011;21130;51.728;8.748;2023-05-23T01:13:09;42.78;;;36.40;;
34924;SDS011;21130;51.728;8.748;2023-05-23T01:15:44;43.38;;;36.67;;
34924;SDS011;21130;51.728;8.748;2023-05-23T01:18:20;41.97;;;35.03;;
34924;SDS011;21130;51.728;8.748;2023-05-23T01:20:52;37.97;;;33.53;;
34924;SDS011;21130;51.728;8.748;2023-05-23T01:23:27;39.53;;;35.22;;
34924;SDS011;21130;51.728;8.748;2023-05-23T01:26:11;38.83;;;33.13;;
34924;SDS011;21130;51.728;8.748;2023-05-23T01:28:46;36.22;;;31.90;;
34924;SDS011;21130;51.728;8.748;2023-05-23T01:31:16;35.85;;;30.52;;
34924;SDS011;21130;51.728;8.748;2023-05-23T01:33:43;35.42;;;30.45;;
34924;SDS011;21130;51.728;8.748;2023-05-23T01:36:12;34.97;;;29.23;;
34924;SDS011;21130;51.728;8.748;2023-05-23T01:38:39;33.78;;;28.15;;
34924;SDS011;21130;51.728;8.748;2023-05-23T01:41:05;33.70;;;29.25;;
34924;SDS011;21130;51.728;8.748;2023-05-23T01:43:31;30.27;;;27.05;;
34924;SDS011;21130;51.728;8.748;2023-05-23T01:45:59;29.02;;;25.85;;
34924;SDS011;21130;51.728;8.748;2023-05-23T01:48:27;29.05;;;26.05;;
34924;SDS011;21130;51.728;8.748;2023-05-23T01:50:54;27.52;;;24.23;;
34924;SDS011;21130;51.728;8.748;2023-05-23T01:53:21;26.40;;;23.60;;
34924;SDS011;21130;51.728;8.748;2023-05-23T01:55:49;31.73;;;24.67;;
34924;SDS011;21130;51.728;8.748;2023-05-23T01:58:17;25.85;;;23.05;;
34924;SDS011;21130;51.728;8.748;2023-05-23T02:00:44;26.00;;;23.35;;
34924;SDS011;21130;51.728;8.748;2023-05-23T02:03:12;26.13;;;23.13;;
34924;SDS011;21130;51.728;8.748;2023-05-23T02:05:39;24.23;;;21.60;;
34924;SDS011;21130;51.728;8.748;2023-05-23T02:08:05;25.52;;;22.17;;
34924;SDS011;21130;51.728;8.748;2023-05-23T02:10:31;23.10;;;20.75;;
34924;SDS011;21130;51.728;8.748;2023-05-23T02:12:58;25.23;;;22.58;;
34924;SDS011;21130;51.728;8.748;2023-05-23T02:15:25;25.35;;;22.67;;
34924;SDS011;21130;51.728;8.748;2023-05-23T02:20:45;20.83;;;18.60;;
34924;SDS011;21130;51.728;8.748;2023-05-23T02:23:12;22.25;;;18.58;;
34924;SDS011;21130;51.728;8.748;2023-05-23T02:25:38;19.83;;;17.85;;
34924;SDS011;21130;51.728;8.748;2023-05-23T02:28:04;20.02;;;17.33;;
34924;SDS011;21130;51.728;8.748;2023-05-23T02:30:31;18.88;;;16.85;;
34924;SDS011;21130;51.728;8.748;2023-05-23T02:32:57;17.08;;;15.27;;
34924;SDS011;21130;51.728;8.748;2023-05-23T02:35:25;17.67;;;15.88;;
34924;SDS011;21130;51.728;8.748;2023-05-23T02:37:51;18.35;;;16.58;;
34924;SDS011;21130;51.728;8.748;2023-05-23T02:40:18;18.98;;;16.95;;
34924;SDS011;21130;51.728;8.748;2023-05-23T02:42:44;18.50;;;16.48;;
34924;SDS011;21130;51.728;8.748;2023-05-23T02:45:11;18.33;;;16.52;;
34924;SDS011;21130;51.728;8.748;2023-05-23T02:47:37;17.92;;;16.00;;
34924;SDS011;21130;51.728;8.748;2023-05-23T02:50:04;18.25;;;16.55;;
34924;SDS011;21130;51.728;8.748;2023-05-23T02:52:33;18.52;;;16.15;;
34924;SDS011;21130;51.728;8.748;2023-05-23T02:54:59;18.30;;;16.50;;
34924;SDS011;21130;51.728;8.748;2023-05-23T02:57:26;19.35;;;17.45;;
34924;SDS011;21130;51.728;8.748;2023-05-23T02:59:52;19.25;;;17.38;;
34924;SDS011;21130;51.728;8.748;2023-05-23T03:02:19;20.65;;;18.38;;
34924;SDS011;21130;51.728;8.748;2023-05-23T03:04:45;20.25;;;17.25;;
34924;SDS011;21130;51.728;8.748;2023-05-23T03:07:12;19.02;;;17.10;;
34924;SDS011;21130;51.728;8.748;2023-05-23T03:09:40;18.45;;;16.50;;
34924;SDS011;21130;51.728;8.748;2023-05-23T03:12:08;18.85;;;16.85;;
34924;SDS011;21130;51.728;8.748;2023-05-23T03:14:35;18.77;;;16.88;;
34924;SDS011;21130;51.728;8.748;2023-05-23T03:17:01;19.30;;;17.35;;
34924;SDS011;21130;51.728;8.748;2023-05-23T03:19:29;19.60;;;17.48;;
34924;SDS011;21130;51.728;8.748;2023-05-23T03:21:55;18.73;;;16.73;;
34924;SDS011;21130;51.728;8.748;2023-05-23T03:24:22;19.63;;;17.58;;
34924;SDS011;21130;51.728;8.748;2023-05-23T03:26:49;20.40;;;18.20;;
34924;SDS011;21130;51.728;8.748;2023-05-23T03:29:16;20.50;;;18.40;;
34924;SDS011;21130;51.728;8.748;2023-05-23T03:31:42;21.50;;;19.15;;
34924;SDS011;21130;51.728;8.748;2023-05-23T03:34:09;22.08;;;19.63;;
34924;SDS011;21130;51.728;8.748;2023-05-23T03:36:37;22.67;;;20.17;;
34924;SDS011;21130;51.728;8.748;2023-05-23T03:39:04;23.70;;;19.42;;
34924;SDS011;21130;51.728;8.748;2023-05-23T03:41:30;22.55;;;19.92;;
34924;SDS011;21130;51.728;8.748;2023-05-23T03:43:58;23.42;;;20.45;;
34924;SDS011;21130;51.728;8.748;2023-05-23T03:46:25;24.60;;;21.20;;
34924;SDS011;21130;51.728;8.748;2023-05-23T03:48:52;24.10;;;20.73;;
34924;SDS011;21130;51.728;8.748;2023-05-23T03:51:18;23.92;;;21.17;;
34924;SDS011;21130;51.728;8.748;2023-05-23T03:53:45;25.08;;;21.33;;
34924;SDS011;21130;51.728;8.748;2023-05-23T03:56:11;24.75;;;22.00;;
34924;SDS011;21130;51.728;8.748;2023-05-23T03:58:37;27.23;;;22.58;;
34924;SDS011;21130;51.728;8.748;2023-05-23T04:01:05;27.00;;;23.55;;
34924;SDS011;21130;51.728;8.748;2023-05-23T04:03:33;25.65;;;22.95;;
34924;SDS011;21130;51.728;8.748;2023-05-23T04:05:59;26.98;;;23.65;;
34924;SDS011;21130;51.728;8.748;2023-05-23T04:08:26;26.08;;;22.13;;
34924;SDS011;21130;51.728;8.748;2023-05-23T04:10:53;26.27;;;22.90;;
34924;SDS011;21130;51.728;8.748;2023-05-23T04:13:19;26.30;;;23.52;;
34924;SDS011;21130;51.728;8.748;2023-05-23T04:15:47;27.80;;;23.10;;
34924;SDS011;21130;51.728;8.748;2023-05-23T04:18:15;26.45;;;23.65;;
34924;SDS011;21130;51.728;8.748;2023-05-23T04:20:42;24.75;;;22.15;;
34924;SDS011;21130;51.728;8.748;2023-05-23T04:23:08;27.90;;;24.33;;
34924;SDS011;21130;51.728;8.748;2023-05-23T04:25:35;26.02;;;23.10;;
34924;SDS011;21130;51.728;8.748;2023-05-23T04:28:01;28.50;;;23.50;;
34924;SDS011;21130;51.728;8.748;2023-05-23T04:30:29;30.13;;;25.02;;
34924;SDS011;21130;51.728;8.748;2023-05-23T04:32:55;30.08;;;24.63;;
34924;SDS011;21130;51.728;8.748;2023-05-23T04:35:25;30.85;;;27.15;;
34924;SDS011;21130;51.728;8.748;2023-05-23T04:37:52;31.98;;;26.92;;
34924;SDS011;21130;51.728;8.748;2023-05-23T04:40:20;33.38;;;26.83;;
34924;SDS011;21130;51.728;8.748;2023-05-23T04:42:47;33.80;;;26.90;;
34924;SDS011;21130;51.728;8.748;2023-05-23T04:45:14;33.95;;;26.95;;
34924;SDS011;21130;51.728;8.748;2023-05-23T04:47:40;32.40;;;28.17;;
34924;SDS011;21130;51.728;8.748;2023-05-23T04:50:09;33.78;;;27.80;;
34924;SDS011;21130;51.728;8.748;2023-05-23T04:52:37;35.63;;;27.83;;
34924;SDS011;21130;51.728;8.748;2023-05-23T04:55:04;33.53;;;27.55;;
34924;SDS011;21130;51.728;8.748;2023-05-23T04:57:30;34.15;;;27.88;;
34924;SDS011;21130;51.728;8.748;2023-05-23T04:59:57;36.22;;;29.52;;
34924;SDS011;21130;51.728;8.748;2023-05-23T05:02:25;35.22;;;27.90;;
34924;SDS011;21130;51.728;8.748;2023-05-23T05:04:52;33.17;;;27.23;;
34924;SDS011;21130;51.728;8.748;2023-05-23T05:07:18;35.28;;;28.95;;
34924;SDS011;21130;51.728;8.748;2023-05-23T05:09:53;31.86;;;27.34;;
34924;SDS011;21130;51.728;8.748;2023-05-23T05:12:20;35.53;;;28.63;;
34924;SDS011;21130;51.728;8.748;2023-05-23T05:14:46;33.20;;;27.40;;
34924;SDS011;21130;51.728;8.748;2023-05-23T05:17:13;32.00;;;28.05;;
34924;SDS011;21130;51.728;8.748;2023-05-23T05:19:40;31.90;;;28.13;;
34924;SDS011;21130;51.728;8.748;2023-05-23T05:22:06;31.98;;;26.98;;
34924;SDS011;21130;51.728;8.748;2023-05-23T05:24:33;32.10;;;28.13;;
34924;SDS011;21130;51.728;8.748;2023-05-23T05:27:00;30.65;;;27.15;;
34924;SDS011;21130;51.728;8.748;2023-05-23T05:29:27;34.63;;;27.25;;
34924;SDS011;21130;51.728;8.748;2023-05-23T05:31:53;35.55;;;28.58;;
34924;SDS011;21130;51.728;8.748;2023-05-23T05:34:20;38.13;;;28.52;;
34924;SDS011;21130;51.728;8.748;2023-05-23T05:36:47;36.63;;;28.75;;
34924;SDS011;21130;51.728;8.748;2023-05-23T05:39:13;36.75;;;29.23;;
34924;SDS011;21130;51.728;8.748;2023-05-23T05:41:40;36.65;;;28.92;;
34924;SDS011;21130;51.728;8.748;2023-05-23T05:44:08;36.40;;;29.27;;
34924;SDS011;21130;51.728;8.748;2023-05-23T05:46:35;39.22;;;29.33;;
34924;SDS011;21130;51.728;8.748;2023-05-23T05:49:01;39.22;;;31.73;;
34924;SDS011;21130;51.728;8.748;2023-05-23T05:51:28;39.13;;;31.08;;
34924;SDS011;21130;51.728;8.748;2023-05-23T05:53:55;41.13;;;31.85;;
34924;SDS011;21130;51.728;8.748;2023-05-23T05:56:22;39.60;;;31.98;;
34924;SDS011;21130;51.728;8.748;2023-05-23T05:58:48;38.45;;;29.58;;
34924;SDS011;21130;51.728;8.748;2023-05-23T06:01:16;40.50;;;30.85;;
34924;SDS011;21130;51.728;8.748;2023-05-23T06:03:43;40.97;;;31.80;;
34924;SDS011;21130;51.728;8.748;2023-05-23T06:06:09;38.42;;;31.35;;
34924;SDS011;21130;51.728;8.748;2023-05-23T06:08:35;38.13;;;31.38;;
34924;SDS011;21130;51.728;8.748;2023-05-23T06:11:02;39.33;;;30.33;;
34924;SDS011;21130;51.728;8.748;2023-05-23T06:13:28;36.38;;;30.25;;
34924;SDS011;21130;51.728;8.748;2023-05-23T06:15:55;35.17;;;29.25;;
34924;SDS011;21130;51.728;8.748;2023-05-23T06:18:25;39.05;;;30.95;;
34924;SDS011;21130;51.728;8.748;2023-05-23T06:20:52;36.15;;;29.63;;
34924;SDS011;21130;51.728;8.748;2023-05-23T06:23:18;33.97;;;29.48;;
34924;SDS011;21130;51.728;8.748;2023-05-23T06:25:45;36.30;;;28.67;;
34924;SDS011;21130;51.728;8.748;2023-05-23T06:28:11;36.53;;;29.45;;
34924;SDS011;21130;51.728;8.748;2023-05-23T06:30:38;35.03;;;29.23;;
34924;SDS011;21130;51.728;8.748;2023-05-23T06:33:04;35.83;;;29.50;;
34924;SDS011;21130;51.728;8.748;2023-05-23T06:35:32;34.80;;;28.95;;
34924;SDS011;21130;51.728;8.748;2023-05-23T06:37:58;32.60;;;28.10;;
34924;SDS011;21130;51.728;8.748;2023-05-23T06:40:25;33.97;;;27.85;;
34924;SDS011;21130;51.728;8.748;2023-05-23T06:42:51;34.45;;;28.40;;
34924;SDS011;21130;51.728;8.748;2023-05-23T06:45:18;35.08;;;27.92;;
34924;SDS011;21130;51.728;8.748;2023-05-23T06:47:44;36.65;;;29.23;;
34924;SDS011;21130;51.728;8.748;2023-05-23T06:50:12;34.58;;;29.75;;
34924;SDS011;21130;51.728;8.748;2023-05-23T06:52:40;37.05;;;30.08;;
34924;SDS011;21130;51.728;8.748;2023-05-23T06:55:08;39.17;;;29.85;;
34924;SDS011;21130;51.728;8.748;2023-05-23T06:57:38;36.35;;;30.30;;
34924;SDS011;21130;51.728;8.748;2023-05-23T07:00:05;38.50;;;30.02;;
34924;SDS011;21130;51.728;8.748;2023-05-23T07:02:32;38.33;;;29.83;;
34924;SDS011;21130;51.728;8.748;2023-05-23T07:04:59;35.22;;;29.85;;
34924;SDS011;21130;51.728;8.748;2023-05-23T07:07:25;36.38;;;28.77;;
34924;SDS011;21130;51.728;8.748;2023-05-23T07:09:53;35.13;;;28.52;;
34924;SDS011;21130;51.728;8.748;2023-05-23T07:12:19;34.67;;;29.60;;
34924;SDS011;21130;51.728;8.748;2023-05-23T07:14:46;38.88;;;29.42;;
34924;SDS011;21130;51.728;8.748;2023-05-23T07:17:12;34.00;;;28.73;;
34924;SDS011;21130;51.728;8.748;2023-05-23T07:19:40;36.38;;;29.08;;
34924;SDS011;21130;51.728;8.748;2023-05-23T07:22:06;34.15;;;27.10;;
34924;SDS011;21130;51.728;8.748;2023-05-23T07:24:33;34.55;;;27.38;;
34924;SDS011;21130;51.728;8.748;2023-05-23T07:27:02;37.88;;;28.40;;
34924;SDS011;21130;51.728;8.748;2023-05-23T07:29:29;33.88;;;28.17;;
34924;SDS011;21130;51.728;8.748;2023-05-23T07:31:55;34.42;;;26.27;;
34924;SDS011;21130;51.728;8.748;2023-05-23T07:34:22;33.10;;;25.25;;
34924;SDS011;21130;51.728;8.748;2023-05-23T07:36:50;33.28;;;25.40;;
34924;SDS011;21130;51.728;8.748;2023-05-23T07:39:17;32.83;;;26.05;;
34924;SDS011;21130;51.728;8.748;2023-05-23T07:41:46;31.60;;;23.58;;
34924;SDS011;21130;51.728;8.748;2023-05-23T07:44:14;28.83;;;23.58;;
34924;SDS011;21130;51.728;8.748;2023-05-23T07:46:41;29.30;;;23.48;;
34924;SDS011;21130;51.728;8.748;2023-05-23T07:49:07;31.48;;;21.70;;
34924;SDS011;21130;51.728;8.748;2023-05-23T07:51:34;27.13;;;20.95;;
34924;SDS011;21130;51.728;8.748;2023-05-23T07:54:00;27.73;;;21.73;;
34924;SDS011;21130;51.728;8.748;2023-05-23T07:56:28;26.17;;;20.63;;
34924;SDS011;21130;51.728;8.748;2023-05-23T07:58:55;27.02;;;20.58;;
34924;SDS011;21130;51.728;8.748;2023-05-23T08:01:22;24.15;;;19.33;;
34924;SDS011;21130;51.728;8.748;2023-05-23T08:03:49;28.25;;;18.85;;
34924;SDS011;21130;51.728;8.748;2023-05-23T08:06:16;25.33;;;18.00;;
34924;SDS011;21130;51.728;8.748;2023-05-23T08:08:42;17.50;;;15.25;;
34924;SDS011;21130;51.728;8.748;2023-05-23T08:11:09;18.45;;;16.23;;
34924;SDS011;21130;51.728;8.748;2023-05-23T08:13:35;22.75;;;16.55;;
34924;SDS011;21130;51.728;8.748;2023-05-23T08:16:02;19.35;;;14.25;;
34924;SDS011;21130;51.728;8.748;2023-05-23T08:18:29;15.52;;;13.98;;
34924;SDS011;21130;51.728;8.748;2023-05-23T08:20:56;19.13;;;14.20;;
34924;SDS011;21130;51.728;8.748;2023-05-23T08:23:23;13.20;;;11.45;;
34924;SDS011;21130;51.728;8.748;2023-05-23T08:25:49;14.68;;;12.13;;
34924;SDS011;21130;51.728;8.748;2023-05-23T08:28:16;11.70;;;10.50;;
34924;SDS011;21130;51.728;8.748;2023-05-23T08:30:43;12.98;;;10.30;;
34924;SDS011;21130;51.728;8.748;2023-05-23T08:33:09;9.73;;;8.65;;
34924;SDS011;21130;51.728;8.748;2023-05-23T08:35:38;8.77;;;7.20;;
34924;SDS011;21130;51.728;8.748;2023-05-23T08:38:05;8.10;;;7.20;;
34924;SDS011;21130;51.728;8.748;2023-05-23T08:40:33;8.18;;;6.93;;
34924;SDS011;21130;51.728;8.748;2023-05-23T08:43:00;9.18;;;6.70;;
34924;SDS011;21130;51.728;8.748;2023-05-23T08:45:27;6.95;;;6.32;;
34924;SDS011;21130;51.728;8.748;2023-05-23T08:47:54;7.22;;;6.43;;
34924;SDS011;21130;51.728;8.748;2023-05-23T08:50:21;8.20;;;6.32;;
34924;SDS011;21130;51.728;8.748;2023-05-23T08:52:52;5.68;;;5.18;;
34924;SDS011;21130;51.728;8.748;2023-05-23T08:55:20;5.20;;;4.70;;
34924;SDS011;21130;51.728;8.748;2023-05-23T08:57:48;5.05;;;4.55;;
34924;SDS011;21130;51.728;8.748;2023-05-23T09:00:16;5.32;;;4.82;;
34924;SDS011;21130;51.728;8.748;2023-05-23T09:02:44;6.35;;;5.00;;
34924;SDS011;21130;51.728;8.748;2023-05-23T09:05:11;5.03;;;4.63;;
34924;SDS011;21130;51.728;8.748;2023-05-23T09:07:38;7.25;;;4.97;;
34924;SDS011;21130;51.728;8.748;2023-05-23T09:10:07;5.30;;;4.80;;
34924;SDS011;21130;51.728;8.748;2023-05-23T09:12:35;4.93;;;4.50;;
34924;SDS011;21130;51.728;8.748;2023-05-23T09:15:02;4.75;;;4.35;;
34924;SDS011;21130;51.728;8.748;2023-05-23T09:17:30;6.60;;;4.90;;
34924;SDS011;21130;51.728;8.748;2023-05-23T09:19:56;5.93;;;4.97;;
34924;SDS011;21130;51.728;8.748;2023-05-23T09:22:23;7.72;;;5.53;;
34924;SDS011;21130;51.728;8.748;2023-05-23T09:24:52;5.45;;;4.90;;
34924;SDS011;21130;51.728;8.748;2023-05-23T09:27:20;6.28;;;5.68;;
34924;SDS011;21130;51.728;8.748;2023-05-23T09:29:47;7.50;;;5.20;;
34924;SDS011;21130;51.728;8.748;2023-05-23T09:32:15;6.53;;;5.53;;
34924;SDS011;21130;51.728;8.748;2023-05-23T09:34:48;7.07;;;5.65;;
34924;SDS011;21130;51.728;8.748;2023-05-23T09:37:21;6.80;;;5.60;;
34924;SDS011;21130;51.728;8.748;2023-05-23T09:39:48;7.45;;;6.00;;
34924;SDS011;21130;51.728;8.748;2023-05-23T09:42:20;9.88;;;6.50;;
34924;SDS011;21130;51.728;8.748;2023-05-23T09:44:47;9.27;;;7.13;;
34924;SDS011;21130;51.728;8.748;2023-05-23T09:47:14;11.65;;;7.30;;
34924;SDS011;21130;51.728;8.748;2023-05-23T09:49:42;11.95;;;7.93;;
34924;SDS011;21130;51.728;8.748;2023-05-23T09:52:08;10.27;;;7.43;;
34924;SDS011;21130;51.728;8.748;2023-05-23T09:54:35;9.82;;;7.90;;
34924;SDS011;21130;51.728;8.748;2023-05-23T09:57:02;10.15;;;8.35;;
34924;SDS011;21130;51.728;8.748;2023-05-23T09:59:33;8.60;;;7.55;;
34924;SDS011;21130;51.728;8.748;2023-05-23T10:02:03;8.95;;;7.35;;
34924;SDS011;21130;51.728;8.748;2023-05-23T10:04:33;11.82;;;7.38;;
34924;SDS011;21130;51.728;8.748;2023-05-23T10:07:02;9.85;;;7.80;;
34924;SDS011;21130;51.728;8.748;2023-05-23T10:09:34;12.02;;;8.38;;
34924;SDS011;21130;51.728;8.748;2023-05-23T10:15:12;13.18;;;7.78;;
34924;SDS011;21130;51.728;8.748;2023-05-23T10:17:45;11.23;;;8.18;;
34924;SDS011;21130;51.728;8.748;2023-05-23T10:20:19;10.30;;;8.27;;
34924;SDS011;21130;51.728;8.748;2023-05-23T10:23:09;13.93;;;9.30;;
34924;SDS011;21130;51.728;8.748;2023-05-23T10:25:55;13.93;;;10.52;;
34924;SDS011;21130;51.728;8.748;2023-05-23T10:28:22;10.77;;;9.30;;
34924;SDS011;21130;51.728;8.748;2023-05-23T10:30:50;14.93;;;10.07;;
34924;SDS011;21130;51.728;8.748;2023-05-23T10:33:17;11.65;;;10.00;;
34924;SDS011;21130;51.728;8.748;2023-05-23T10:35:47;15.18;;;10.38;;
34924;SDS011;21130;51.728;8.748;2023-05-23T10:38:25;13.18;;;9.73;;
34924;SDS011;21130;51.728;8.748;2023-05-23T10:40:57;13.45;;;10.85;;
34924;SDS011;21130;51.728;8.748;2023-05-23T10:43:33;14.68;;;11.05;;
34924;SDS011;21130;51.728;8.748;2023-05-23T10:46:12;15.00;;;11.07;;
34924;SDS011;21130;51.728;8.748;2023-05-23T10:48:40;14.75;;;10.32;;
34924;SDS011;21130;51.728;8.748;2023-05-23T10:51:08;16.65;;;11.27;;
34924;SDS011;21130;51.728;8.748;2023-05-23T10:53:36;17.67;;;11.88;;
34924;SDS011;21130;51.728;8.748;2023-05-23T10:56:05;17.52;;;11.80;;
34924;SDS011;21130;51.728;8.748;2023-05-23T10:58:32;23.98;;;12.55;;
34924;SDS011;21130;51.728;8.748;2023-05-23T11:01:01;19.10;;;12.25;;
34924;SDS011;21130;51.728;8.748;2023-05-23T11:03:33;22.88;;;13.50;;
34924;SDS011;21130;51.728;8.748;2023-05-23T11:06:00;18.67;;;12.23;;
34924;SDS011;21130;51.728;8.748;2023-05-23T11:08:27;18.92;;;12.80;;
34924;SDS011;21130;51.728;8.748;2023-05-23T11:11:02;20.55;;;12.23;;
34924;SDS011;21130;51.728;8.748;2023-05-23T11:16:26;18.58;;;11.27;;
34924;SDS011;21130;51.728;8.748;2023-05-23T11:21:51;19.83;;;12.25;;
34924;SDS011;21130;51.728;8.748;2023-05-23T11:24:19;17.05;;;12.55;;
34924;SDS011;21130;51.728;8.748;2023-05-23T11:26:50;20.15;;;13.20;;
34924;SDS011;21130;51.728;8.748;2023-05-23T11:29:19;20.63;;;14.02;;
34924;SDS011;21130;51.728;8.748;2023-05-23T11:31:46;21.35;;;13.68;;
34924;SDS011;21130;51.728;8.748;2023-05-23T11:34:12;22.83;;;12.75;;
34924;SDS011;21130;51.728;8.748;2023-05-23T11:36:40;18.58;;;11.25;;
34924;SDS011;21130;51.728;8.748;2023-05-23T11:39:07;19.23;;;11.35;;
34924;SDS011;21130;51.728;8.748;2023-05-23T11:41:33;17.65;;;10.80;;
34924;SDS011;21130;51.728;8.748;2023-05-23T11:44:00;17.85;;;9.65;;
34924;SDS011;21130;51.728;8.748;2023-05-23T11:46:27;18.25;;;10.00;;
34924;SDS011;21130;51.728;8.748;2023-05-23T11:48:53;14.15;;;9.20;;
34924;SDS011;21130;51.728;8.748;2023-05-23T11:51:19;19.38;;;9.27;;
34924;SDS011;21130;51.728;8.748;2023-05-23T11:53:48;15.90;;;8.18;;
34924;SDS011;21130;51.728;8.748;2023-05-23T11:56:15;14.75;;;8.20;;
34924;SDS011;21130;51.728;8.748;2023-05-23T11:58:41;13.75;;;7.55;;
34924;SDS011;21130;51.728;8.748;2023-05-23T12:01:10;14.25;;;7.40;;
34924;SDS011;21130;51.728;8.748;2023-05-23T12:03:43;13.77;;;6.63;;
34924;SDS011;21130;51.728;8.748;2023-05-23T12:06:13;13.57;;;7.28;;
34924;SDS011;21130;51.728;8.748;2023-05-23T12:08:40;14.05;;;7.05;;
34924;SDS011;21130;51.728;8.748;2023-05-23T12:11:08;15.30;;;6.70;;
34924;SDS011;21130;51.728;8.748;2023-05-23T12:13:35;11.32;;;6.28;;
34924;SDS011;21130;51.728;8.748;2023-05-23T12:16:02;11.15;;;5.43;;
34924;SDS011;21130;51.728;8.748;2023-05-23T12:18:30;12.85;;;5.90;;
34924;SDS011;21130;51.728;8.748;2023-05-23T12:20:58;10.30;;;6.30;;
34924;SDS011;21130;51.728;8.748;2023-05-23T12:23:27;10.63;;;4.95;;
34924;SDS011;21130;51.728;8.748;2023-05-23T12:25:54;9.73;;;5.70;;
34924;SDS011;21130;51.728;8.748;2023-05-23T12:28:43;9.55;;;5.10;;
34924;SDS011;21130;51.728;8.748;2023-05-23T12:31:28;8.05;;;4.80;;
34924;SDS011;21130;51.728;8.748;2023-05-23T12:34:12;10.27;;;5.40;;
34924;SDS011;21130;51.728;8.748;2023-05-23T12:36:57;9.40;;;4.93;;
34924;SDS011;21130;51.728;8.748;2023-05-23T12:39:27;10.30;;;5.10;;
34924;SDS011;21130;51.728;8.748;2023-05-23T12:41:54;11.90;;;5.57;;
34924;SDS011;21130;51.728;8.748;2023-05-23T12:44:25;10.32;;;4.78;;
34924;SDS011;21130;51.728;8.748;2023-05-23T12:46:55;11.57;;;5.07;;
34924;SDS011;21130;51.728;8.748;2023-05-23T12:49:22;14.45;;;5.45;;
34924;SDS011;21130;51.728;8.748;2023-05-23T12:51:48;11.05;;;4.95;;
34924;SDS011;21130;51.728;8.748;2023-05-23T12:54:15;10.68;;;4.50;;
34924;SDS011;21130;51.728;8.748;2023-05-23T12:56:42;11.93;;;4.55;;
34924;SDS011;21130;51.728;8.748;2023-05-23T12:59:08;12.30;;;4.57;;
34924;SDS011;21130;51.728;8.748;2023-05-23T13:01:36;12.00;;;5.05;;
34924;SDS011;21130;51.728;8.748;2023-05-23T13:04:03;13.38;;;4.20;;
34924;SDS011;21130;51.728;8.748;2023-05-23T13:06:29;13.48;;;4.70;;
34924;SDS011;21130;51.728;8.748;2023-05-23T13:08:57;13.20;;;3.97;;
34924;SDS011;21130;51.728;8.748;2023-05-23T13:11:24;14.02;;;5.18;;
34924;SDS011;21130;51.728;8.748;2023-05-23T13:13:51;14.05;;;4.93;;
34924;SDS011;21130;51.728;8.748;2023-05-23T13:16:17;11.77;;;4.80;;
34924;SDS011;21130;51.728;8.748;2023-05-23T13:18:45;18.30;;;5.57;;
34924;SDS011;21130;51.728;8.748;2023-05-23T13:21:12;13.75;;;5.00;;
34924;SDS011;21130;51.728;8.748;2023-05-23T13:23:39;15.02;;;5.55;;
34924;SDS011;21130;51.728;8.748;2023-05-23T13:26:05;16.00;;;5.35;;
34924;SDS011;21130;51.728;8.748;2023-05-23T13:28:32;14.73;;;5.57;;
34924;SDS011;21130;51.728;8.748;2023-05-23T13:30:58;14.18;;;5.25;;
34924;SDS011;21130;51.728;8.748;2023-05-23T13:33:25;11.45;;;4.32;;
34924;SDS011;21130;51.728;8.748;2023-05-23T13:35:53;15.50;;;5.32;;
34924;SDS011;21130;51.728;8.748;2023-05-23T13:38:20;11.80;;;4.40;;
34924;SDS011;21130;51.728;8.748;2023-05-23T13:40:46;13.27;;;4.28;;
34924;SDS011;21130;51.728;8.748;2023-05-23T13:43:15;13.00;;;4.30;;
34924;SDS011;21130;51.728;8.748;2023-05-23T13:45:42;9.05;;;3.95;;
34924;SDS011;21130;51.728;8.748;2023-05-23T13:48:08;11.25;;;4.53;;
34924;SDS011;21130;51.728;8.748;2023-05-23T13:50:35;13.88;;;4.65;;
34924;SDS011;21130;51.728;8.748;2023-05-23T13:53:02;8.88;;;3.75;;
34924;SDS011;21130;51.728;8.748;2023-05-23T13:55:36;10.80;;;4.30;;
34924;SDS011;21130;51.728;8.748;2023-05-23T13:58:02;14.73;;;4.07;;
34924;SDS011;21130;51.728;8.748;2023-05-23T14:00:29;17.55;;;4.80;;
34924;SDS011;21130;51.728;8.748;2023-05-23T14:02:56;14.55;;;4.28;;
34924;SDS011;21130;51.728;8.748;2023-05-23T14:05:22;13.18;;;4.70;;
34924;SDS011;21130;51.728;8.748;2023-05-23T14:07:49;9.13;;;3.88;;
34924;SDS011;21130;51.728;8.748;2023-05-23T14:10:16;15.32;;;4.65;;
34924;SDS011;21130;51.728;8.748;2023-05-23T14:12:43;8.75;;;4.13;;
34924;SDS011;21130;51.728;8.748;2023-05-23T14:15:10;11.38;;;4.30;;
34924;SDS011;21130;51.728;8.748;2023-05-23T14:17:37;13.63;;;4.93;;
34924;SDS011;21130;51.728;8.748;2023-05-23T14:20:05;11.93;;;4.20;;
34924;SDS011;21130;51.728;8.748;2023-05-23T14:22:33;15.05;;;4.80;;
34924;SDS011;21130;51.728;8.748;2023-05-23T14:24:59;15.95;;;4.93;;
34924;SDS011;21130;51.728;8.748;2023-05-23T14:27:27;13.73;;;4.65;;
34924;SDS011;21130;51.728;8.748;2023-05-23T14:29:54;15.25;;;4.78;;
34924;SDS011;21130;51.728;8.748;2023-05-23T14:32:20;14.93;;;4.40;;
34924;SDS011;21130;51.728;8.748;2023-05-23T14:34:47;11.43;;;4.50;;
34924;SDS011;21130;51.728;8.748;2023-05-23T14:37:14;14.70;;;4.32;;
34924;SDS011;21130;51.728;8.748;2023-05-23T14:39:41;11.55;;;3.97;;
34924;SDS011;21130;51.728;8.748;2023-05-23T14:42:07;13.60;;;4.60;;
34924;SDS011;21130;51.728;8.748;2023-05-23T14:44:35;13.52;;;4.68;;